createdAt,value
2018-12-01T00:00:51.717Z,101324.56
2018-12-01T00:03:21.543Z,101321.12
2018-12-01T00:05:52.066Z,101320.31
2018-12-01T00:08:21.665Z,101323.44
2018-12-01T00:10:51.496Z,101321.72
2018-12-01T00:13:21.285Z,101329.62
2018-12-01T00:15:51.059Z,101323.03
2018-12-01T00:18:22.044Z,101326.57
2018-12-01T00:20:51.886Z,101332.70
2018-12-01T00:23:21.704Z,101323.94
2018-12-01T00:25:51.704Z,101321.36
2018-12-01T00:28:22.728Z,101323.09
2018-12-01T00:30:52.349Z,101312.98
2018-12-01T00:33:23.424Z,101311.67
2018-12-01T00:35:53.323Z,101320.45
2018-12-01T00:38:23.647Z,101320.88
2018-12-01T00:40:53.600Z,101321.37
2018-12-01T00:43:27.944Z,101313.89
2018-12-01T00:45:56.566Z,101308.26
2018-12-01T00:48:27.019Z,101312.63
2018-12-01T00:50:57.967Z,101311.30
2018-12-01T00:53:27.811Z,101308.72
2018-12-01T00:55:58.294Z,101306.94
2018-12-01T00:58:27.943Z,101303.86
2018-12-01T01:00:58.307Z,101299.97
2018-12-01T01:03:28.083Z,101304.41
2018-12-01T01:05:57.955Z,101306.64
2018-12-01T01:08:28.238Z,101299.20
2018-12-01T01:10:58.793Z,101304.50
2018-12-01T01:13:28.630Z,101312.00
2018-12-01T01:15:58.604Z,101309.86
2018-12-01T01:18:28.211Z,101320.88
2018-12-01T01:20:58.107Z,101328.80
2018-12-01T01:23:28.084Z,101331.02
2018-12-01T01:25:58.882Z,101330.62
2018-12-01T01:28:29.276Z,101329.79
2018-12-01T01:30:59.303Z,101326.71
2018-12-01T01:33:32.657Z,101329.34
2018-12-01T01:36:02.623Z,101331.93
2018-12-01T01:38:32.766Z,101333.25
2018-12-01T01:41:09.289Z,101341.09
2018-12-01T01:43:39.247Z,101340.23
2018-12-01T01:46:09.667Z,101337.14
2018-12-01T01:48:39.383Z,101332.26
2018-12-01T01:51:09.016Z,101334.80
2018-12-01T01:53:39.510Z,101341.42
2018-12-01T01:56:09.722Z,101342.36
2018-12-01T01:58:40.238Z,101341.09
2018-12-01T02:01:10.357Z,101335.42
2018-12-01T02:03:40.105Z,101344.63
2018-12-01T02:06:11.824Z,101351.66
2018-12-01T02:08:43.577Z,101344.26
2018-12-01T02:11:16.156Z,101347.38
2018-12-01T02:13:46.377Z,101345.64
2018-12-01T02:16:16.302Z,101345.23
2018-12-01T02:18:46.284Z,101343.50
2018-12-01T02:21:16.172Z,101334.76
2018-12-01T02:23:45.983Z,101331.67
2018-12-01T02:26:15.907Z,101334.27
2018-12-01T02:28:45.978Z,101331.56
2018-12-01T02:31:16.228Z,101324.50
2018-12-01T02:33:46.865Z,101326.26
2018-12-01T02:36:16.702Z,101325.39
2018-12-01T02:38:46.448Z,101329.30
2018-12-01T02:41:16.586Z,101319.64
2018-12-01T02:44:08.805Z,101319.64
2018-12-01T02:47:06.797Z,101315.74
2018-12-01T02:49:36.900Z,101319.64
2018-12-01T02:52:07.610Z,101314.92
2018-12-01T02:54:37.255Z,101318.50
2018-12-01T02:57:07.200Z,101308.44
2018-12-01T02:59:37.884Z,101315.53
2018-12-01T03:02:07.926Z,101315.61
2018-12-01T03:04:38.494Z,101324.84
2018-12-01T03:07:08.508Z,101319.62
2018-12-01T03:09:38.350Z,101327.03
2018-12-01T03:12:07.888Z,101329.20
2018-12-01T03:14:37.878Z,101330.06
2018-12-01T03:17:07.683Z,101336.16
2018-12-01T03:19:37.500Z,101333.45
2018-12-01T03:22:07.069Z,101334.27
2018-12-01T03:24:36.866Z,101334.59
2018-12-01T03:27:07.704Z,101339.69
2018-12-01T03:29:37.790Z,101341.38
2018-12-01T03:32:07.919Z,101327.64
2018-12-01T03:34:37.792Z,101330.58
2018-12-01T03:37:07.788Z,101326.93
2018-12-01T03:39:37.898Z,101325.92
2018-12-01T03:42:07.604Z,101331.13
2018-12-01T03:44:37.377Z,101329.31
2018-12-01T03:47:07.622Z,101328.86
2018-12-01T03:49:37.461Z,101327.50
2018-12-01T03:52:09.078Z,101324.41
2018-12-01T03:54:39.044Z,101330.07
2018-12-01T03:57:09.074Z,101324.34
2018-12-01T03:59:39.305Z,101326.02
2018-12-01T04:02:09.424Z,101321.61
2018-12-01T04:04:39.328Z,101325.97
2018-12-01T04:07:09.116Z,101321.61
2018-12-01T04:09:38.698Z,101320.30
2018-12-01T04:12:08.335Z,101323.33
2018-12-01T04:14:38.316Z,101324.24
2018-12-01T04:17:08.710Z,101318.53
2018-12-01T04:19:39.610Z,101327.68
2018-12-01T04:22:09.215Z,101328.94
2018-12-01T04:24:39.129Z,101327.59
2018-12-01T04:27:08.879Z,101323.16
2018-12-01T04:29:38.977Z,101320.12
2018-12-01T04:32:08.691Z,101318.34
2018-12-01T04:34:38.654Z,101317.91
2018-12-01T04:37:09.224Z,101324.44
2018-12-01T04:39:39.920Z,101330.55
2018-12-01T04:42:10.131Z,101333.14
2018-12-01T04:44:40.441Z,101328.73
2018-12-01T04:47:11.169Z,101336.67
2018-12-01T04:49:40.487Z,101337.08
2018-12-01T04:52:09.830Z,101344.02
2018-12-01T04:54:39.231Z,101340.53
2018-12-01T04:57:08.606Z,101337.44
2018-12-01T04:59:38.049Z,101337.83
2018-12-01T05:02:07.332Z,101340.91
2018-12-01T05:04:36.766Z,101341.73
2018-12-01T05:07:06.115Z,101342.99
2018-12-01T05:09:35.480Z,101349.58
2018-12-01T05:12:05.362Z,101340.76
2018-12-01T05:14:34.826Z,101350.42
2018-12-01T05:17:04.252Z,101352.04
2018-12-01T05:19:33.584Z,101354.62
2018-12-01T05:22:02.938Z,101350.26
2018-12-01T05:24:32.284Z,101355.02
2018-12-01T05:27:01.690Z,101351.91
2018-12-01T05:29:31.170Z,101354.08
2018-12-01T05:32:00.505Z,101350.94
2018-12-01T05:34:29.912Z,101345.33
2018-12-01T05:36:59.360Z,101351.52
2018-12-01T05:39:28.702Z,101355.53
2018-12-01T05:41:58.069Z,101355.58
2018-12-01T05:44:27.571Z,101361.30
2018-12-01T05:46:56.910Z,101360.85
2018-12-01T05:49:26.419Z,101356.45
2018-12-01T05:51:55.768Z,101355.98
2018-12-01T05:54:25.119Z,101363.83
2018-12-01T05:56:54.697Z,101362.58
2018-12-01T05:59:24.253Z,101363.44
2018-12-01T06:01:53.540Z,101361.76
2018-12-01T06:04:22.939Z,101367.45
2018-12-01T06:06:52.350Z,101365.31
2018-12-01T06:09:21.732Z,101360.12
2018-12-01T06:11:51.068Z,101357.58
2018-12-01T06:14:20.566Z,101359.02
2018-12-01T06:16:49.975Z,101356.89
2018-12-01T06:19:19.340Z,101358.38
2018-12-01T06:21:48.791Z,101361.16
2018-12-01T06:24:18.187Z,101364.34
2018-12-01T06:26:47.545Z,101358.73
2018-12-01T06:29:17.104Z,101364.55
2018-12-01T06:31:46.484Z,101359.37
2018-12-01T06:34:15.808Z,101366.00
2018-12-01T06:36:45.192Z,101364.68
2018-12-01T06:39:14.671Z,101368.58
2018-12-01T06:41:44.106Z,101362.36
2018-12-01T06:44:13.445Z,101362.32
2018-12-01T06:46:42.827Z,101360.95
2018-12-01T06:49:12.128Z,101365.80
2018-12-01T06:51:41.480Z,101383.33
2018-12-01T06:54:10.828Z,101379.73
2018-12-01T06:56:40.334Z,101386.72
2018-12-01T06:59:09.819Z,101386.27
2018-12-01T07:01:39.194Z,101377.05
2018-12-01T07:04:08.625Z,101376.60
2018-12-01T07:06:37.960Z,101373.97
2018-12-01T07:09:10.558Z,101379.28
2018-12-01T07:11:40.076Z,101382.37
2018-12-01T07:14:09.521Z,101380.65
2018-12-01T07:16:38.898Z,101375.84
2018-12-01T07:19:17.774Z,101378.92
2018-12-01T07:21:47.154Z,101379.37
2018-12-01T07:24:16.441Z,101383.73
2018-12-01T07:26:45.781Z,101383.69
2018-12-01T07:29:15.179Z,101378.87
2018-12-01T07:31:47.426Z,101373.56
2018-12-01T07:34:14.057Z,101371.78
2018-12-01T07:36:43.870Z,101380.05
2018-12-01T07:39:13.199Z,101380.40
2018-12-01T07:41:42.684Z,101378.58
2018-12-01T07:44:11.999Z,101383.73
2018-12-01T07:46:41.393Z,101382.31
2018-12-01T07:49:10.733Z,101378.77
2018-12-01T07:51:40.139Z,101391.52
2018-12-01T07:54:09.595Z,101388.85
2018-12-01T07:56:39.080Z,101398.02
2018-12-01T07:59:08.525Z,101389.66
2018-12-01T08:01:37.921Z,101391.78
2018-12-01T08:04:07.394Z,101381.23
2018-12-01T08:06:36.817Z,101386.86
2018-12-01T08:09:07.999Z,101384.73
2018-12-01T08:11:37.391Z,101382.66
2018-12-01T08:14:06.789Z,101385.53
2018-12-01T08:16:36.109Z,101378.59
2018-12-01T08:19:05.717Z,101374.70
2018-12-01T08:21:35.054Z,101373.41
2018-12-01T08:24:04.407Z,101374.70
2018-12-01T08:26:33.771Z,101376.84
2018-12-01T08:29:03.151Z,101368.14
2018-12-01T08:31:32.509Z,101362.50
2018-12-01T08:34:01.961Z,101359.94
2018-12-01T08:36:31.377Z,101362.18
2018-12-01T08:39:00.759Z,101355.64
2018-12-01T08:41:30.163Z,101367.84
2018-12-01T08:43:59.538Z,101371.22
2018-12-01T08:46:29.117Z,101379.93
2018-12-01T08:48:58.513Z,101376.05
2018-12-01T08:51:27.947Z,101380.39
2018-12-01T08:53:57.311Z,101378.16
2018-12-01T08:56:26.751Z,101371.05
2018-12-01T08:58:56.164Z,101369.13
2018-12-01T09:01:25.559Z,101379.52
2018-12-01T09:03:54.901Z,101371.12
2018-12-01T09:06:24.307Z,101375.94
2018-12-01T09:08:53.879Z,101379.78
2018-12-01T09:11:23.168Z,101384.99
2018-12-01T09:13:52.553Z,101383.73
2018-12-01T09:16:21.932Z,101391.30
2018-12-01T09:18:52.168Z,101389.64
2018-12-01T09:21:21.009Z,101377.83
2018-12-01T09:23:50.797Z,101372.56
2018-12-01T09:26:20.159Z,101378.98
2018-12-01T09:28:50.178Z,101383.28
2018-12-01T09:31:19.563Z,101386.75
2018-12-01T09:33:48.981Z,101388.41
2018-12-01T09:36:18.318Z,101388.88
2018-12-01T09:38:47.629Z,101374.77
2018-12-01T09:41:17.159Z,101380.31
2018-12-01T09:43:46.501Z,101374.05
2018-12-01T09:46:15.815Z,101369.88
2018-12-01T09:48:45.145Z,101363.52
2018-12-01T09:51:14.563Z,101367.67
2018-12-01T09:53:44.024Z,101362.73
2018-12-01T09:56:13.487Z,101366.14
2018-12-01T09:58:42.806Z,101363.64
2018-12-01T10:01:12.310Z,101368.86
2018-12-01T10:03:41.751Z,101370.27
2018-12-01T10:06:11.084Z,101368.48
2018-12-01T10:08:40.432Z,101365.35
2018-12-01T10:11:09.864Z,101363.91
2018-12-01T10:13:39.426Z,101363.91
2018-12-01T10:16:08.768Z,101366.48
2018-12-01T10:18:38.163Z,101366.48
2018-12-01T10:21:07.485Z,101364.37
2018-12-01T10:23:36.833Z,101357.45
2018-12-01T10:26:06.581Z,101373.91
2018-12-01T10:28:35.913Z,101369.95
2018-12-01T10:31:08.530Z,101360.70
2018-12-01T10:33:40.829Z,101361.95
2018-12-01T10:36:10.267Z,101361.81
2018-12-01T10:38:39.706Z,101370.89
2018-12-01T10:41:09.073Z,101370.13
2018-12-01T10:43:38.416Z,101372.75
2018-12-01T10:46:07.862Z,101361.11
2018-12-01T10:48:37.147Z,101367.00
2018-12-01T10:51:07.061Z,101364.30
2018-12-01T10:53:36.452Z,101359.77
2018-12-01T10:56:06.059Z,101357.67
2018-12-01T10:58:35.513Z,101354.00
2018-12-01T11:01:23.044Z,101344.20
2018-12-01T11:03:52.792Z,101344.20
2018-12-01T11:06:22.316Z,101348.27
2018-12-01T11:08:51.909Z,101348.27
2018-12-01T11:11:21.241Z,101348.44
2018-12-01T11:13:50.768Z,101348.44
2018-12-01T11:16:20.129Z,101340.81
2018-12-01T11:18:49.563Z,101355.19
2018-12-01T11:21:19.420Z,101351.71
2018-12-01T11:23:49.045Z,101348.45
2018-12-01T11:26:18.850Z,101333.78
2018-12-01T11:28:48.318Z,101340.95
2018-12-01T11:31:17.867Z,101313.81
2018-12-01T11:33:47.433Z,101317.73
2018-12-01T11:36:16.937Z,101308.81
2018-12-01T11:38:46.330Z,101315.71
2018-12-01T11:41:15.799Z,101321.53
2018-12-01T11:43:45.442Z,101329.92
2018-12-01T11:46:14.802Z,101311.63
2018-12-01T11:48:44.183Z,101323.00
2018-12-01T11:51:13.521Z,101325.97
2018-12-01T11:53:42.993Z,101320.70
2018-12-01T11:56:12.335Z,101320.70
2018-12-01T11:58:41.881Z,101328.05
2018-12-01T12:01:11.240Z,101320.47
2018-12-01T12:03:40.669Z,101321.34
2018-12-01T12:06:10.101Z,101312.91
2018-12-01T12:08:39.471Z,101312.38
2018-12-01T12:11:08.725Z,101298.81
2018-12-01T12:13:38.056Z,101312.98
2018-12-01T12:16:07.399Z,101302.73
2018-12-01T12:18:36.781Z,101297.53
2018-12-01T12:21:06.231Z,101288.36
2018-12-01T12:23:35.707Z,101281.19
2018-12-01T12:26:04.955Z,101282.44
2018-12-01T12:28:34.449Z,101280.38
2018-12-01T12:31:03.831Z,101288.22
2018-12-01T12:33:33.210Z,101298.53
2018-12-01T12:36:02.585Z,101285.27
2018-12-01T12:38:32.081Z,101290.81
2018-12-01T12:41:01.488Z,101276.00
2018-12-01T12:43:30.987Z,101283.39
2018-12-01T12:46:00.365Z,101283.55
2018-12-01T12:48:29.779Z,101275.22
2018-12-01T12:50:59.246Z,101264.33
2018-12-01T12:53:28.577Z,101268.98
2018-12-01T12:55:58.173Z,101266.67
2018-12-01T12:58:27.513Z,101278.07
2018-12-01T13:00:57.079Z,101266.52
2018-12-01T13:03:26.479Z,101259.57
2018-12-01T13:05:56.194Z,101258.00
2018-12-01T13:08:25.779Z,101254.14
2018-12-01T13:10:55.657Z,101249.14
2018-12-01T13:13:25.124Z,101258.83
2018-12-01T13:15:54.769Z,101253.50
2018-12-01T13:18:24.126Z,101247.22
2018-12-01T13:20:55.657Z,101250.47
2018-12-01T13:23:25.284Z,101245.07
2018-12-01T13:25:54.633Z,101243.88
2018-12-01T13:28:24.999Z,101244.04
2018-12-01T13:30:59.159Z,101244.77
2018-12-01T13:33:28.894Z,101248.02
2018-12-01T13:35:58.469Z,101242.39
2018-12-01T13:38:28.014Z,101253.12
2018-12-01T13:40:57.393Z,101248.72
2018-12-01T13:43:26.868Z,101249.45
2018-12-01T13:45:56.202Z,101251.30
2018-12-01T13:48:25.730Z,101250.16
2018-12-01T13:50:55.074Z,101255.84
2018-12-01T13:53:24.624Z,101248.00
2018-12-01T13:55:54.290Z,101249.95
2018-12-01T13:58:23.607Z,101243.72
2018-12-01T14:00:53.087Z,101244.41
2018-12-01T14:03:22.457Z,101252.95
2018-12-01T14:05:51.709Z,101258.66
2018-12-01T14:08:21.007Z,101254.28
2018-12-01T14:10:51.335Z,101257.80
2018-12-01T14:13:20.875Z,101251.92
2018-12-01T14:15:50.221Z,101256.50
2018-12-01T14:18:19.553Z,101251.70
2018-12-01T14:20:48.861Z,101254.27
2018-12-01T14:23:18.238Z,101254.96
2018-12-01T14:25:48.146Z,101251.88
2018-12-01T14:28:17.510Z,101255.50
2018-12-01T14:30:46.810Z,101247.28
2018-12-01T14:33:16.628Z,101241.11
2018-12-01T14:35:45.965Z,101244.98
2018-12-01T14:38:18.037Z,101240.12
2018-12-01T14:40:54.611Z,101242.63
2018-12-01T14:43:24.036Z,101247.98
2018-12-01T14:45:53.535Z,101260.32
2018-12-01T14:48:23.245Z,101252.95
2018-12-01T14:50:52.586Z,101248.24
2018-12-01T14:53:22.367Z,101249.77
2018-12-01T14:55:52.082Z,101249.77
2018-12-01T14:58:21.620Z,101257.08
2018-12-01T15:00:50.953Z,101248.59
2018-12-01T15:03:20.556Z,101242.95
2018-12-01T15:05:50.398Z,101242.95
2018-12-01T15:08:20.090Z,101233.05
2018-12-01T15:10:49.557Z,101215.90
2018-12-01T15:13:18.899Z,101222.52
2018-12-01T15:15:48.351Z,101221.02
2018-12-01T15:18:19.773Z,101215.52
2018-12-01T15:20:47.562Z,101220.52
2018-12-01T15:23:16.944Z,101237.67
2018-12-01T15:25:46.383Z,101220.34
2018-12-01T15:28:15.948Z,101221.84
2018-12-01T15:30:45.515Z,101228.17
2018-12-01T15:33:16.115Z,101227.94
2018-12-01T15:35:46.697Z,101227.94
2018-12-01T15:38:16.640Z,101226.37
2018-12-01T15:40:55.203Z,101219.02
2018-12-01T15:43:24.549Z,101205.70
2018-12-01T15:45:53.916Z,101205.70
2018-12-01T15:48:23.770Z,101206.13
2018-12-01T15:50:53.220Z,101205.77
2018-12-01T15:53:22.656Z,101204.45
2018-12-01T15:55:52.011Z,101203.66
2018-12-01T15:58:21.548Z,101194.98
2018-12-01T16:00:51.178Z,101188.91
2018-12-01T16:03:20.677Z,101191.62
2018-12-01T16:05:50.984Z,101179.84
2018-12-01T16:08:20.317Z,101180.70
2018-12-01T16:10:49.670Z,101176.34
2018-12-01T16:13:23.258Z,101175.02
2018-12-01T16:16:03.494Z,101172.32
2018-12-01T16:18:32.868Z,101181.55
2018-12-01T16:21:02.360Z,101174.50
2018-12-01T16:23:31.806Z,101171.02
2018-12-01T16:26:01.295Z,101165.81
2018-12-01T16:28:30.770Z,101165.81
2018-12-01T16:31:00.161Z,101161.86
2018-12-01T16:33:29.545Z,101151.32
2018-12-01T16:35:59.032Z,101143.08
2018-12-01T16:38:31.248Z,101143.09
2018-12-01T16:41:02.615Z,101140.92
2018-12-01T16:43:34.902Z,101138.30
2018-12-01T16:46:04.273Z,101134.39
2018-12-01T16:48:33.676Z,101131.78
2018-12-01T16:51:03.426Z,101129.94
2018-12-01T16:53:32.788Z,101128.61
2018-12-01T16:56:02.494Z,101125.06
2018-12-01T16:58:31.864Z,101121.22
2018-12-01T17:01:01.499Z,101129.55
2018-12-01T17:03:31.126Z,101129.61
2018-12-01T17:06:03.245Z,101123.02
2018-12-01T17:08:32.630Z,101124.85
2018-12-01T17:11:01.998Z,101126.12
2018-12-01T17:13:31.387Z,101116.42
2018-12-01T17:16:00.761Z,101112.06
2018-12-01T17:18:30.227Z,101100.70
2018-12-01T17:20:59.960Z,101109.86
2018-12-01T17:23:29.724Z,101100.55
2018-12-01T17:25:59.231Z,101100.08
2018-12-01T17:28:29.082Z,101108.25
2018-12-01T17:30:58.782Z,101101.98
2018-12-01T17:33:28.091Z,101100.63
2018-12-01T17:35:57.547Z,101102.69
2018-12-01T17:38:27.404Z,101116.15
2018-12-01T17:41:17.237Z,101116.15
2018-12-01T17:44:01.294Z,101114.70
2018-12-01T17:46:30.791Z,101096.62
2018-12-01T17:49:00.268Z,101104.02
2018-12-01T17:51:29.696Z,101100.50
2018-12-01T17:54:05.169Z,101087.34
2018-12-01T17:56:34.568Z,101089.50
2018-12-01T17:59:03.922Z,101089.50
2018-12-01T18:01:33.479Z,101096.16
2018-12-01T18:04:02.995Z,101098.88
2018-12-01T18:06:32.770Z,101099.72
2018-12-01T18:09:02.181Z,101099.26
2018-12-01T18:11:31.657Z,101097.01
2018-12-01T18:14:01.163Z,101093.00
2018-12-01T18:16:30.622Z,101094.30
2018-12-01T18:19:00.098Z,101090.80
2018-12-01T18:21:29.681Z,101075.31
2018-12-01T18:23:59.231Z,101096.02
2018-12-01T18:26:28.842Z,101085.94
2018-12-01T18:28:58.469Z,101095.23
2018-12-01T18:31:31.518Z,101089.12
2018-12-01T18:34:12.630Z,101086.47
2018-12-01T18:36:41.994Z,101081.67
2018-12-01T18:39:13.784Z,101078.58
2018-12-01T18:41:43.171Z,101068.56
2018-12-01T18:44:12.631Z,101075.16
2018-12-01T18:46:42.113Z,101073.39
2018-12-01T18:49:11.495Z,101072.53
2018-12-01T18:51:40.882Z,101062.45
2018-12-01T18:54:10.350Z,101061.61
2018-12-01T18:56:40.004Z,101065.56
2018-12-01T18:59:09.389Z,101061.59
2018-12-01T19:01:38.795Z,101054.94
2018-12-01T19:04:08.397Z,101052.77
2018-12-01T19:06:37.903Z,101042.12
2018-12-01T19:09:08.557Z,101038.12
2018-12-01T19:11:37.954Z,101031.11
2018-12-01T19:14:07.623Z,101031.81
2018-12-01T19:16:37.280Z,101026.53
2018-12-01T19:19:06.807Z,101017.29
2018-12-01T19:21:36.410Z,101014.97
2018-12-01T19:24:06.111Z,101012.42
2018-12-01T19:26:35.605Z,101010.56
2018-12-01T19:29:05.520Z,101006.98
2018-12-01T19:31:35.105Z,101003.89
2018-12-01T19:34:04.841Z,101003.87
2018-12-01T19:36:34.374Z,100995.94
2018-12-01T19:39:04.483Z,100997.68
2018-12-01T19:41:34.156Z,100990.23
2018-12-01T19:44:03.704Z,100996.82
2018-12-01T19:46:33.581Z,100997.59
2018-12-01T19:49:03.332Z,100992.77
2018-12-01T19:51:32.805Z,100985.31
2018-12-01T19:54:03.514Z,100981.78
2018-12-01T19:56:33.088Z,100979.14
2018-12-01T19:59:02.736Z,100974.38
2018-12-01T20:01:32.113Z,100969.51
2018-12-01T20:04:01.457Z,100965.95
2018-12-01T20:06:30.891Z,100969.05
2018-12-01T20:09:00.883Z,100964.21
2018-12-01T20:11:30.272Z,100960.73
2018-12-01T20:14:01.530Z,100951.51
2018-12-01T20:16:36.327Z,100942.73
2018-12-01T20:19:06.712Z,100930.36
2018-12-01T20:21:36.018Z,100935.60
2018-12-01T20:24:06.381Z,100929.33
2018-12-01T20:26:35.897Z,100926.09
2018-12-01T20:29:06.120Z,100919.02
2018-12-01T20:31:35.748Z,100908.87
2018-12-01T20:34:05.354Z,100906.20
2018-12-01T20:36:47.306Z,100892.55
2018-12-01T20:39:32.717Z,100892.87
2018-12-01T20:42:02.164Z,100877.67
2018-12-01T20:44:31.567Z,100870.98
2018-12-01T20:47:00.920Z,100867.76
2018-12-01T20:49:30.348Z,100865.58
2018-12-01T20:51:59.862Z,100856.01
2018-12-01T20:54:45.796Z,100845.48
2018-12-01T20:57:29.614Z,100850.42
2018-12-01T20:59:59.446Z,100843.86
2018-12-01T21:02:28.848Z,100844.31
2018-12-01T21:04:58.204Z,100843.00
2018-12-01T21:07:27.679Z,100833.85
2018-12-01T21:09:57.167Z,100833.42
2018-12-01T21:12:26.618Z,100829.55
2018-12-01T21:14:56.046Z,100826.09
2018-12-01T21:17:25.503Z,100822.50
2018-12-01T21:19:54.926Z,100818.52
2018-12-01T21:22:24.289Z,100823.70
2018-12-01T21:24:53.816Z,100821.52
2018-12-01T21:27:23.202Z,100821.06
2018-12-01T21:29:52.626Z,100815.78
2018-12-01T21:32:22.684Z,100805.70
2018-12-01T21:34:52.088Z,100802.99
2018-12-01T21:37:21.507Z,100798.15
2018-12-01T21:39:51.206Z,100804.38
2018-12-01T21:42:20.644Z,100802.99
2018-12-01T21:44:50.078Z,100799.37
2018-12-01T21:47:19.789Z,100803.70
2018-12-01T21:49:49.210Z,100793.42
2018-12-01T21:52:18.573Z,100793.35
2018-12-01T21:54:48.580Z,100792.40
2018-12-01T21:57:18.047Z,100778.25
2018-12-01T21:59:47.417Z,100778.22
2018-12-01T22:02:17.359Z,100761.06
2018-12-01T22:04:46.864Z,100758.92
2018-12-01T22:07:16.293Z,100761.06
2018-12-01T22:09:45.777Z,100754.41
2018-12-01T22:12:15.226Z,100755.33
2018-12-01T22:14:44.621Z,100747.05
2018-12-01T22:17:13.923Z,100737.88
2018-12-01T22:19:43.278Z,100730.03
2018-12-01T22:22:12.658Z,100725.21
2018-12-01T22:24:42.070Z,100722.77
2018-12-01T22:27:11.386Z,100723.69
2018-12-01T22:29:40.791Z,100717.09
2018-12-01T22:32:10.378Z,100717.20
2018-12-01T22:34:39.913Z,100725.87
2018-12-01T22:37:09.208Z,100718.34
2018-12-01T22:39:38.701Z,100714.30
2018-12-01T22:42:08.394Z,100715.81
2018-12-01T22:44:38.124Z,100701.69
2018-12-01T22:47:07.761Z,100703.20
2018-12-01T22:49:37.270Z,100679.62
2018-12-01T22:52:07.178Z,100692.88
2018-12-01T22:54:36.590Z,100687.55
2018-12-01T22:57:06.638Z,100687.55
2018-12-01T22:59:36.166Z,100679.31
2018-12-01T23:02:06.434Z,100672.95
2018-12-01T23:04:36.246Z,100677.98
2018-12-01T23:07:05.871Z,100663.67
2018-12-01T23:09:35.506Z,100663.73
2018-12-01T23:12:04.840Z,100663.02
2018-12-01T23:14:34.149Z,100663.80
2018-12-01T23:17:03.468Z,100663.80
2018-12-01T23:19:32.865Z,100657.63
2018-12-01T23:22:02.926Z,100657.89
2018-12-01T23:24:32.290Z,100656.58
2018-12-01T23:27:01.744Z,100644.63
2018-12-01T23:29:31.378Z,100643.31
2018-12-01T23:32:00.902Z,100636.11
2018-12-01T23:34:30.348Z,100637.19
2018-12-01T23:37:00.440Z,100637.55
2018-12-01T23:39:29.964Z,100638.87
2018-12-01T23:42:04.905Z,100632.77
2018-12-01T23:44:34.218Z,100632.77
2018-12-01T23:47:03.718Z,100616.80
2018-12-01T23:49:33.110Z,100622.82
2018-12-01T23:52:02.479Z,100626.28
2018-12-01T23:54:31.881Z,100626.99
2018-12-01T23:57:01.232Z,100612.72
2018-12-01T23:59:30.654Z,100612.72
